Time;durP1;ratioP1;P1;durP2;ratioP2;P2;SDS_P1;SDS_P2;PMS_P1;PMS_P2;Temp;Humidity;BMP_temperature;BMP_pressure;BME280_temperature;BME280_humidity;BME280_pressure;Samples;Min_cycle;Max_cycle;Signal;HPM_P1;HPM_P2
2022/05/10 00:00:29;;;;;;;0.90;0.30;;;;;;;13.86;100.00;95722.19;5096189;28;20424;-60
2022/05/10 00:03:01;;;;;;;0.40;0.20;;;;;;;14.24;100.00;95767.72;5097100;28;20468;-61
2022/05/10 00:05:42;;;;;;;0.40;0.30;;;;;;;14.07;100.00;95764.66;5098457;28;20447;-60
2022/05/10 00:08:14;;;;;;;0.40;0.30;;;;;;;13.65;100.00;95771.38;5097175;28;20460;-60
2022/05/10 00:10:45;;;;;;;0.53;0.30;;;;;;;13.09;100.00;95768.25;5092311;28;20440;-61
2022/05/10 00:13:14;;;;;;;0.40;0.30;;;;;;;12.59;100.00;95779.84;5091969;28;20856;-60
2022/05/10 00:15:43;;;;;;;0.40;0.20;;;;;;;12.33;100.00;95778.28;5095920;28;20470;-61
2022/05/10 00:18:14;;;;;;;3.90;0.60;;;;;;;11.71;100.00;95773.28;5095881;28;21126;-60
2022/05/10 00:20:45;;;;;;;0.40;0.30;;;;;;;11.86;100.00;95764.53;5096075;28;20466;-60
2022/05/10 00:23:14;;;;;;;0.50;0.50;;;;;;;12.18;100.00;95773.00;5096099;28;20439;-67
2022/05/10 00:25:43;;;;;;;0.93;0.93;;;;;;;12.54;100.00;95779.06;5096109;28;20489;-60
2022/05/10 00:28:11;;;;;;;0.40;0.20;;;;;;;12.88;100.00;95790.63;5095634;28;20433;-60
2022/05/10 00:30:40;;;;;;;3.03;0.97;;;;;;;12.85;100.00;95772.56;5095470;28;20489;-60
2022/05/10 00:33:13;;;;;;;0.50;0.30;;;;;;;12.99;100.00;95767.44;5095567;28;20428;-60
2022/05/10 00:35:42;;;;;;;1.03;1.03;;;;;;;12.99;100.00;95772.78;5095589;28;20489;-60
2022/05/10 00:38:12;;;;;;;0.40;0.30;;;;;;;12.61;100.00;95761.75;5096023;28;20465;-60
2022/05/10 00:40:43;;;;;;;0.40;0.30;;;;;;;12.77;100.00;95775.00;5095744;28;20459;-60
2022/05/10 00:43:31;;;;;;;0.53;0.53;;;;;;;12.95;100.00;95772.53;5095182;28;20448;-60
2022/05/10 00:46:02;;;;;;;0.40;0.30;;;;;;;12.72;100.00;95786.47;5095087;28;20471;-60
2022/05/10 00:48:36;;;;;;;1.63;0.97;;;;;;;12.93;100.00;95771.22;5095295;28;20432;-60
2022/05/10 00:51:12;;;;;;;0.50;0.50;;;;;;;12.50;100.00;95693.69;5095407;28;20480;-60
2022/05/10 00:53:53;;;;;;;0.40;0.30;;;;;;;13.08;100.00;95771.97;5095555;28;20467;-60
2022/05/10 00:56:29;;;;;;;0.40;0.40;;;;;;;12.98;100.00;95760.56;5095401;28;20425;-60
2022/05/10 00:59:04;;;;;;;0.53;0.47;;;;;;;13.06;100.00;95770.59;5095141;28;20455;-60
2022/05/10 01:01:34;;;;;;;0.60;0.30;;;;;;;12.53;100.00;95673.75;5094682;28;20432;-60
2022/05/10 01:04:12;;;;;;;0.30;0.30;;;;;;;13.06;100.00;95766.13;5095065;28;20474;-60
2022/05/10 01:06:47;;;;;;;0.40;0.20;;;;;;;12.97;100.00;95772.25;5095221;28;20905;-60
2022/05/10 01:09:23;;;;;;;0.67;0.67;;;;;;;12.83;100.00;95774.69;5094951;28;20454;-60
2022/05/10 01:11:58;;;;;;;0.40;0.30;;;;;;;12.89;100.00;95778.94;5093915;28;20594;-60
2022/05/10 01:14:35;;;;;;;0.40;0.30;;;;;;;12.84;100.00;95764.84;5095126;28;20459;-60
2022/05/10 01:17:04;;;;;;;1.97;1.90;;;;;;;12.90;100.00;95779.75;5094889;28;20988;-60
2022/05/10 01:19:32;;;;;;;0.40;0.20;;;;;;;12.92;100.00;95777.59;5094765;28;20460;-60
2022/05/10 01:22:22;;;;;;;0.40;0.20;;;;;;;12.92;100.00;95780.25;5094934;28;20508;-60
2022/05/10 01:25:14;;;;;;;0.77;0.77;;;;;;;13.02;100.00;95780.22;5093110;28;20559;-60
2022/05/10 01:27:52;;;;;;;0.40;0.20;;;;;;;12.97;100.00;95782.91;5094486;28;20512;-60
2022/05/10 01:30:25;;;;;;;0.40;0.30;;;;;;;12.90;100.00;95774.41;5094685;28;20455;-61
2022/05/10 01:35:59;;;;;;;0.40;0.20;;;;;;;12.83;100.00;95771.22;5094344;28;20468;-60
2022/05/10 01:38:35;;;;;;;0.40;0.30;;;;;;;12.31;100.00;95703.34;5094812;28;20440;-59
2022/05/10 01:41:12;;;;;;;0.40;0.30;;;;;;;12.84;100.00;95770.97;5094395;28;20463;-59
2022/05/10 01:43:45;;;;;;;0.80;0.40;;;;;;;12.66;100.00;95771.56;5094087;28;20428;-59
2022/05/10 01:46:19;;;;;;;0.90;0.50;;;;;;;12.71;100.00;95777.66;5094176;28;21054;-60
2022/05/10 01:48:52;;;;;;;0.50;0.33;;;;;;;12.71;100.00;95772.34;5094503;28;20424;-59
2022/05/10 01:51:28;;;;;;;0.40;0.40;;;;;;;12.74;100.00;95774.47;5094359;28;20815;-60
2022/05/10 01:53:57;;;;;;;0.30;0.20;;;;;;;12.71;100.00;95776.88;5094433;28;20440;-60
2022/05/10 01:56:29;;;;;;;0.30;0.20;;;;;;;12.58;100.00;95766.78;5094290;28;20489;-59
2022/05/10 01:58:58;;;;;;;0.40;0.30;;;;;;;12.69;100.00;95765.72;5093868;28;20429;-59
2022/05/10 02:01:34;;;;;;;0.40;0.40;;;;;;;12.71;100.00;95772.34;5094153;28;20493;-59
2022/05/10 02:04:09;;;;;;;0.40;0.30;;;;;;;12.63;100.00;95780.88;5093789;28;20847;-60
2022/05/10 02:06:46;;;;;;;0.30;0.20;;;;;;;12.49;100.00;95745.31;5094088;28;20796;-59
2022/05/10 02:09:21;;;;;;;0.40;0.30;;;;;;;12.59;100.00;95771.88;5093876;28;20878;-59
2022/05/10 02:11:56;;;;;;;0.40;0.20;;;;;;;12.55;100.00;95770.78;5093857;28;20431;-59
2022/05/10 02:14:32;;;;;;;0.40;0.20;;;;;;;12.54;100.00;95777.19;5093716;28;20479;-60
2022/05/10 02:17:08;;;;;;;0.30;0.20;;;;;;;12.54;100.00;95774.53;5093870;28;20865;-59
2022/05/10 02:19:43;;;;;;;0.40;0.20;;;;;;;12.47;100.00;95781.97;5093917;28;20463;-59
2022/05/10 02:22:19;;;;;;;0.40;0.27;;;;;;;12.02;100.00;95769.56;5093518;28;20471;-59
2022/05/10 02:24:54;;;;;;;0.40;0.20;;;;;;;11.98;100.00;95757.88;5093440;28;20502;-59
2022/05/10 02:27:28;;;;;;;0.40;0.30;;;;;;;12.35;100.00;95786.78;5093456;28;20488;-59
2022/05/10 02:30:02;;;;;;;0.40;0.30;;;;;;;12.17;100.00;95749.38;5093363;28;20989;-60
2022/05/10 02:35:20;;;;;;;0.30;0.30;;;;;;;12.36;100.00;95756.50;5084386;28;20523;-59
2022/05/10 02:37:49;;;;;;;0.50;0.37;;;;;;;12.36;100.00;95764.47;5092711;28;20502;-60
2022/05/10 02:40:17;;;;;;;0.30;0.20;;;;;;;12.48;100.00;95772.94;5093567;28;20452;-60
2022/05/10 02:42:48;;;;;;;0.40;0.30;;;;;;;12.20;100.00;95775.38;5092662;28;20440;-60
2022/05/10 02:45:19;;;;;;;0.40;0.30;;;;;;;11.92;100.00;95758.94;5092977;28;20600;-59
2022/05/10 02:47:50;;;;;;;0.40;0.30;;;;;;;12.17;100.00;95773.28;5093071;28;20481;-60
2022/05/10 02:50:24;;;;;;;1.40;0.27;;;;;;;12.24;100.00;95766.63;5093273;28;20474;-60
2022/05/10 02:52:53;;;;;;;0.40;0.30;;;;;;;12.04;100.00;95764.75;5092780;28;21020;-60
2022/05/10 02:55:27;;;;;;;5.80;0.67;;;;;;;12.09;100.00;95769.31;5093343;28;20459;-60
2022/05/10 02:58:01;;;;;;;1.90;0.50;;;;;;;12.16;100.00;95769.00;5092661;28;20463;-60
2022/05/10 03:00:30;;;;;;;0.50;0.50;;;;;;;12.25;100.00;95764.75;5092487;28;20489;-60
2022/05/10 03:03:07;;;;;;;0.40;0.30;;;;;;;12.19;100.00;95771.16;5092714;28;20984;-60
2022/05/10 03:05:36;;;;;;;0.50;0.40;;;;;;;12.19;100.00;95771.16;5091907;28;20829;-59
2022/05/10 03:08:05;;;;;;;0.30;0.20;;;;;;;12.04;100.00;95756.78;5092868;28;20519;-60
2022/05/10 03:10:33;;;;;;;0.43;0.37;;;;;;;12.04;100.00;95772.72;5092732;28;20814;-59
2022/05/10 03:13:02;;;;;;;0.40;0.30;;;;;;;12.04;100.00;95785.25;5092633;28;20549;-59
2022/05/10 03:15:31;;;;;;;0.40;0.20;;;;;;;12.01;100.00;95764.53;5092244;28;20477;-59
2022/05/10 03:18:00;;;;;;;0.30;0.20;;;;;;;12.00;100.00;95777.00;5091724;28;20462;-59
2022/05/10 03:20:29;;;;;;;0.67;0.67;;;;;;;11.34;100.00;95780.63;5091580;28;20504;-59
2022/05/10 03:22:58;;;;;;;0.50;0.50;;;;;;;11.33;100.00;95785.13;5091868;28;20456;-59
2022/05/10 03:25:30;;;;;;;0.30;0.20;;;;;;;11.48;100.00;95785.16;5091910;28;20904;-60
2022/05/10 03:27:59;;;;;;;0.50;0.40;;;;;;;11.45;100.00;95784.91;5092009;28;20853;-60
2022/05/10 03:30:28;;;;;;;0.60;0.60;;;;;;;10.99;100.00;95722.97;5092338;28;20519;-59
2022/05/10 03:32:57;;;;;;;0.40;0.30;;;;;;;11.28;100.00;95790.41;5092470;28;20433;-59
2022/05/10 03:35:27;;;;;;;0.40;0.37;;;;;;;11.13;100.00;95787.72;5092208;28;20911;-59
2022/05/10 03:37:55;;;;;;;0.40;0.27;;;;;;;10.91;100.00;95795.06;5092108;28;20922;-59
2022/05/10 03:40:23;;;;;;;1.03;0.70;;;;;;;10.82;100.00;95791.34;5092208;28;20416;-59
2022/05/10 03:42:54;;;;;;;0.40;0.30;;;;;;;10.90;100.00;95787.38;5092137;28;20455;-60
2022/05/10 03:45:24;;;;;;;0.57;0.50;;;;;;;10.81;100.00;95781.78;5091207;28;20550;-60
2022/05/10 03:47:53;;;;;;;0.40;0.30;;;;;;;11.08;100.00;95793.00;5091955;28;20851;-62
2022/05/10 03:50:23;;;;;;;0.50;0.33;;;;;;;11.44;100.00;95788.59;5092312;28;20507;-60
2022/05/10 03:52:54;;;;;;;0.43;0.37;;;;;;;11.55;100.00;95795.53;5092099;28;20436;-59
2022/05/10 03:55:25;;;;;;;0.40;0.33;;;;;;;10.68;100.00;95788.34;5092021;28;20466;-59
2022/05/10 03:57:54;;;;;;;0.43;0.33;;;;;;;10.88;100.00;95787.63;5092004;28;20464;-59
2022/05/10 04:00:25;;;;;;;0.30;0.20;;;;;;;11.01;100.00;95804.91;5092329;28;20455;-60
2022/05/10 04:02:55;;;;;;;0.30;0.20;;;;;;;11.28;100.00;95801.03;5091931;28;20420;-59
2022/05/10 04:05:25;;;;;;;0.33;0.20;;;;;;;11.38;100.00;95805.59;5091977;28;20481;-59
2022/05/10 04:07:55;;;;;;;0.30;0.20;;;;;;;11.51;100.00;95794.44;5091832;28;20843;-59
2022/05/10 04:10:24;;;;;;;0.80;0.80;;;;;;;11.70;100.00;95800.09;5091213;28;20557;-59
2022/05/10 04:12:52;;;;;;;0.30;0.20;;;;;;;11.72;100.00;95811.25;5091883;28;20424;-59
2022/05/10 04:15:21;;;;;;;0.40;0.20;;;;;;;11.84;100.00;95809.16;5091836;28;20476;-60
2022/05/10 04:17:52;;;;;;;0.50;0.47;;;;;;;11.75;100.00;95810.72;5092044;28;20956;-60
2022/05/10 04:20:21;;;;;;;0.40;0.30;;;;;;;11.91;100.00;95815.00;5090244;28;20432;-59
2022/05/10 04:22:49;;;;;;;0.30;0.30;;;;;;;12.01;100.00;95815.00;5089998;28;20481;-60
2022/05/10 04:25:23;;;;;;;0.40;0.30;;;;;;;12.28;100.00;95812.03;5090203;28;20429;-60
2022/05/10 04:27:52;;;;;;;0.93;0.93;;;;;;;12.06;100.00;95813.13;5090915;28;20512;-60
2022/05/10 04:30:22;;;;;;;0.40;0.40;;;;;;;11.97;100.00;95806.75;5090750;28;20954;-60
2022/05/10 04:32:50;;;;;;;0.50;0.50;;;;;;;12.42;100.00;95816.53;5090538;28;20485;-60
2022/05/10 04:35:19;;;;;;;0.30;0.30;;;;;;;12.15;100.00;95810.72;5091315;28;20436;-59
2022/05/10 04:37:47;;;;;;;2.00;0.70;;;;;;;12.11;100.00;95820.31;5090977;28;20432;-59
2022/05/10 04:43:05;;;;;;;0.43;0.43;;;;;;;12.05;100.00;95819.50;5090973;28;20830;-60
2022/05/10 04:45:33;;;;;;;0.50;0.30;;;;;;;12.46;100.00;95812.31;5090834;28;20472;-60
2022/05/10 04:48:02;;;;;;;0.87;0.80;;;;;;;12.19;100.00;95822.44;5090955;28;20420;-59
2022/05/10 04:50:31;;;;;;;2.00;1.53;;;;;;;12.18;100.00;95822.69;5091335;28;20428;-60
2022/05/10 04:52:59;;;;;;;0.30;0.20;;;;;;;12.44;100.00;95809.13;5091376;28;20416;-60
2022/05/10 04:55:28;;;;;;;0.33;0.27;;;;;;;12.83;100.00;95776.56;5091568;28;20489;-60
2022/05/10 04:57:57;;;;;;;1.27;0.63;;;;;;;13.21;100.00;95816.63;5091609;28;20471;-60
2022/05/10 05:00:29;;;;;;;0.40;0.30;;;;;;;12.89;100.00;95818.03;5093302;28;20934;-60
2022/05/10 05:02:58;;;;;;;1.90;1.80;;;;;;;12.27;100.00;95821.09;5094969;28;20475;-60
2022/05/10 05:05:27;;;;;;;0.50;0.43;;;;;;;11.76;100.00;95822.94;5095372;28;20847;-60
2022/05/10 05:07:55;;;;;;;4.10;1.43;;;;;;;11.71;100.00;95822.94;5094929;28;20525;-60
2022/05/10 05:10:23;;;;;;;0.50;0.50;;;;;;;11.47;100.00;95830.56;5095275;28;20444;-60
2022/05/10 05:12:52;;;;;;;0.57;0.57;;;;;;;11.32;100.00;95819.91;5095044;28;20545;-60
2022/05/10 05:15:21;;;;;;;0.63;0.63;;;;;;;11.51;100.00;95834.25;5095327;28;20417;-60
2022/05/10 05:17:51;;;;;;;2.67;0.90;;;;;;;11.79;100.00;95825.09;5095207;28;20497;-60
2022/05/10 05:20:19;;;;;;;0.50;0.30;;;;;;;11.48;100.00;95827.63;5094453;28;20507;-60
2022/05/10 05:22:48;;;;;;;0.40;0.40;;;;;;;12.09;100.00;95822.44;5095708;28;20424;-60
2022/05/10 05:25:16;;;;;;;0.40;0.30;;;;;;;13.02;100.00;95820.13;5095119;28;20507;-60
2022/05/10 05:27:45;;;;;;;0.40;0.30;;;;;;;13.27;100.00;95815.53;5095061;28;20507;-60
2022/05/10 05:30:17;;;;;;;0.70;0.60;;;;;;;12.99;100.00;95812.69;5094889;28;20428;-61
2022/05/10 05:32:45;;;;;;;12.30;0.40;;;;;;;13.07;100.00;95817.47;5093605;28;20962;-61
2022/05/10 05:35:15;;;;;;;4.10;0.80;;;;;;;13.17;100.00;95801.47;5094645;28;20482;-61
2022/05/10 05:37:44;;;;;;;0.40;0.20;;;;;;;13.08;98.87;95798.56;5094448;28;20965;-61
2022/05/10 05:40:15;;;;;;;0.50;0.47;;;;;;;13.57;98.57;95817.25;5094274;28;20424;-61
2022/05/10 05:42:48;;;;;;;0.40;0.30;;;;;;;13.96;92.80;95793.28;5094481;28;20428;-61
2022/05/10 05:45:19;;;;;;;0.40;0.30;;;;;;;14.09;92.34;95808.59;5094180;28;20472;-61
2022/05/10 05:47:48;;;;;;;0.60;0.57;;;;;;;14.23;87.78;95804.25;5094093;28;20467;-62
2022/05/10 05:50:20;;;;;;;0.50;0.40;;;;;;;14.02;88.06;95803.59;5093932;28;20503;-62
2022/05/10 05:52:56;;;;;;;0.40;0.30;;;;;;;14.52;83.26;95801.63;5093765;28;20519;-64
2022/05/10 05:55:24;;;;;;;0.40;0.30;;;;;;;14.92;77.81;95790.50;5093995;28;20559;-62
2022/05/10 05:57:53;;;;;;;0.50;0.37;;;;;;;15.30;77.08;95793.25;5093876;28;20433;-62
2022/05/10 06:00:25;;;;;;;0.40;0.37;;;;;;;15.92;69.98;95792.13;5093615;28;20508;-62
2022/05/10 06:02:53;;;;;;;0.60;0.30;;;;;;;15.44;75.84;95788.78;5093935;28;20463;-62
2022/05/10 06:05:27;;;;;;;1.17;1.07;;;;;;;15.85;75.45;95787.94;5093946;28;20425;-63
2022/05/10 06:07:55;;;;;;;0.50;0.50;;;;;;;16.44;68.72;95795.25;5093687;28;20914;-66
2022/05/10 06:10:24;;;;;;;0.40;0.30;;;;;;;16.99;62.85;95785.47;5094118;28;20452;-66
2022/05/10 06:12:52;;;;;;;0.50;0.30;;;;;;;17.65;60.76;95792.16;5093046;28;20428;-68
2022/05/10 06:15:21;;;;;;;0.50;0.30;;;;;;;18.01;58.59;95790.22;5094225;28;20456;-68
2022/05/10 06:17:50;;;;;;;0.40;0.20;;;;;;;17.74;59.90;95745.53;5094117;28;20456;-69
2022/05/10 06:20:21;;;;;;;0.50;0.40;;;;;;;17.50;58.32;95787.09;5093679;28;20417;-69
2022/05/10 06:22:51;;;;;;;0.40;0.30;;;;;;;17.29;60.61;95785.91;5093186;28;20456;-67
2022/05/10 06:25:23;;;;;;;1.93;0.93;;;;;;;16.68;65.37;95780.97;5093638;28;20902;-67
2022/05/10 06:27:53;;;;;;;2.93;1.03;;;;;;;17.03;64.78;95775.72;5092953;28;20587;-66
2022/05/10 06:30:23;;;;;;;0.77;0.40;;;;;;;17.07;61.38;95749.16;5092949;28;20447;-66
2022/05/10 06:32:53;;;;;;;0.40;0.30;;;;;;;18.05;59.02;95774.31;5092628;28;20977;-66
2022/05/10 06:35:21;;;;;;;0.70;0.53;;;;;;;17.95;55.44;95770.00;5093067;28;20504;-66
2022/05/10 06:40:45;;;;;;;0.60;0.60;;;;;;;18.42;57.52;95752.47;5094177;28;20472;-65
2022/05/10 06:43:14;;;;;;;0.53;0.50;;;;;;;18.59;55.51;95768.72;5094733;28;20891;-64
2022/05/10 06:45:43;;;;;;;0.50;0.40;;;;;;;18.52;54.75;95762.19;5098127;28;20977;-64
2022/05/10 06:48:12;;;;;;;0.40;0.30;;;;;;;18.71;52.00;95762.75;5097691;28;21040;-64
2022/05/10 06:50:47;;;;;;;2.00;1.27;;;;;;;18.82;51.44;95764.06;5096308;28;20436;-64
2022/05/10 06:53:17;;;;;;;0.73;0.70;;;;;;;19.61;49.00;95757.47;5095373;28;20975;-63
2022/05/10 06:55:46;;;;;;;10.70;0.40;;;;;;;20.61;48.13;95755.34;5094126;28;20456;-63
2022/05/10 06:58:14;;;;;;;0.93;0.60;;;;;;;20.30;47.18;95721.69;5094054;28;20464;-61
2022/05/10 07:00:43;;;;;;;0.80;0.80;;;;;;;20.45;44.98;95692.34;5092870;28;20512;-62
2022/05/10 07:03:14;;;;;;;0.40;0.30;;;;;;;19.66;46.72;95740.41;5095971;28;20471;-61
2022/05/10 07:05:43;;;;;;;1.23;0.93;;;;;;;19.65;46.61;95746.91;5093156;28;20424;-61
2022/05/10 07:08:12;;;;;;;0.40;0.30;;;;;;;20.69;45.54;95746.47;5092358;28;20558;-61
2022/05/10 07:10:45;;;;;;;0.50;0.37;;;;;;;21.37;42.62;95736.47;5095114;28;20417;-61
2022/05/10 07:13:18;;;;;;;0.50;0.50;;;;;;;21.56;44.59;95730.63;5093518;28;20441;-60
2022/05/10 07:15:46;;;;;;;0.77;0.77;;;;;;;21.21;43.02;95732.75;5096656;28;20482;-62
2022/05/10 07:18:15;;;;;;;0.50;0.40;;;;;;;20.48;43.71;95732.09;5093190;28;20408;-61
2022/05/10 07:20:57;;;;;;;1.40;1.40;;;;;;;21.61;41.97;95730.44;5094540;28;20489;-62
2022/05/10 07:23:29;;;;;;;0.40;0.30;;;;;;;22.07;40.67;95728.34;5096937;28;20427;-62
2022/05/10 07:26:06;;;;;;;0.40;0.30;;;;;;;22.88;39.05;95721.44;5095827;28;20464;-63
2022/05/10 07:28:37;;;;;;;0.50;0.40;;;;;;;21.65;40.37;95712.47;5093337;28;20496;-63
2022/05/10 07:31:12;;;;;;;0.40;0.30;;;;;;;21.65;40.56;95631.56;5093970;28;20448;-63
2022/05/10 07:33:42;;;;;;;0.97;0.70;;;;;;;21.74;42.40;95721.28;5096078;28;20489;-66
2022/05/10 07:36:25;;;;;;;2.10;0.83;;;;;;;22.46;40.51;95710.78;5094016;28;20557;-65
2022/05/10 07:38:54;;;;;;;0.50;0.40;;;;;;;22.85;39.31;95692.38;5092263;28;20522;-65
2022/05/10 07:41:38;;;;;;;0.50;0.50;;;;;;;22.94;39.08;95701.19;5093653;28;20458;-67
2022/05/10 07:44:09;;;;;;;0.50;0.50;;;;;;;23.54;37.70;95695.72;5094952;28;20460;-67
2022/05/10 07:46:41;;;;;;;0.60;0.47;;;;;;;23.00;38.24;95678.97;5092216;28;20494;-58
2022/05/10 07:49:13;;;;;;;0.73;0.73;;;;;;;23.88;38.15;95687.03;5092329;28;20471;-58
2022/05/10 07:51:51;;;;;;;0.50;0.40;;;;;;;24.32;35.91;95685.19;5092228;28;20467;-58
2022/05/10 07:54:28;;;;;;;0.50;0.37;;;;;;;23.45;36.09;95681.56;5092749;28;20431;-58
2022/05/10 07:57:04;;;;;;;0.50;0.30;;;;;;;24.27;40.69;95681.94;5091913;28;20481;-58
2022/05/10 07:59:36;;;;;;;0.60;0.50;;;;;;;24.69;38.34;95677.63;5092156;28;20468;-56
2022/05/10 08:02:06;;;;;;;0.50;0.30;;;;;;;25.43;35.36;95678.56;5091844;28;20497;-56
2022/05/10 08:04:47;;;;;;;0.40;0.33;;;;;;;24.92;34.95;95673.16;5091828;28;20436;-56
2022/05/10 08:07:17;;;;;;;0.50;0.50;;;;;;;24.74;34.54;95665.72;5091403;28;20437;-60
2022/05/10 08:09:45;;;;;;;0.40;0.30;;;;;;;24.51;34.46;95660.13;5091587;28;20516;-57
2022/05/10 08:12:15;;;;;;;0.90;0.50;;;;;;;24.88;35.97;95666.06;5091874;28;20417;-55
2022/05/10 08:14:43;;;;;;;0.40;0.30;;;;;;;24.54;34.56;95665.63;5091738;28;20478;-55
2022/05/10 08:17:12;;;;;;;1.17;0.60;;;;;;;24.88;33.96;95658.72;5092026;28;20428;-55
2022/05/10 08:19:40;;;;;;;0.40;0.30;;;;;;;25.73;33.85;95655.97;5092014;28;20490;-54
2022/05/10 08:22:09;;;;;;;0.40;0.30;;;;;;;25.01;34.74;95624.94;5091836;28;20837;-54
2022/05/10 08:24:37;;;;;;;0.60;0.50;;;;;;;25.91;33.92;95629.16;5091532;28;20436;-54
2022/05/10 08:27:06;;;;;;;0.40;0.30;;;;;;;25.81;34.28;95567.28;5091307;28;20448;-55
2022/05/10 08:29:37;;;;;;;0.87;0.40;;;;;;;24.60;35.37;95544.97;5091566;28;20476;-54
2022/05/10 08:32:05;;;;;;;0.60;0.60;;;;;;;24.80;35.29;95629.09;5090940;28;20930;-54
2022/05/10 08:34:35;;;;;;;0.60;0.60;;;;;;;24.90;35.19;95602.22;5092433;28;20485;-54
2022/05/10 08:37:04;;;;;;;0.40;0.30;;;;;;;26.27;34.09;95641.50;5096058;28;20448;-54
2022/05/10 08:39:32;;;;;;;0.40;0.30;;;;;;;26.66;33.37;95595.97;5096070;28;20485;-54
2022/05/10 08:42:04;;;;;;;0.30;0.30;;;;;;;27.27;34.63;95617.50;5095732;28;20471;-54
2022/05/10 08:44:40;;;;;;;0.40;0.27;;;;;;;26.68;31.92;95537.34;5095332;28;20544;-55
2022/05/10 08:47:10;;;;;;;0.53;0.53;;;;;;;26.41;33.72;95579.25;5095257;28;21024;-54
2022/05/10 08:49:46;;;;;;;0.50;0.30;;;;;;;26.65;31.71;95625.09;5095286;28;20471;-54
2022/05/10 08:52:17;;;;;;;0.40;0.30;;;;;;;27.13;31.74;95611.84;5095621;28;20440;-54
2022/05/10 08:54:46;;;;;;;0.40;0.30;;;;;;;27.63;30.77;95614.88;5095578;28;20432;-54
2022/05/10 08:57:23;;;;;;;1.17;0.50;;;;;;;27.92;32.04;95613.28;5095198;28;20427;-54
2022/05/10 09:00:01;;;;;;;0.53;0.40;;;;;;;27.13;30.76;95585.41;5095088;28;20461;-54
2022/05/10 09:02:38;;;;;;;0.40;0.30;;;;;;;27.57;29.80;95563.84;5095400;28;20477;-54
2022/05/10 09:05:12;;;;;;;0.40;0.30;;;;;;;28.06;30.30;95607.22;5095017;28;20922;-54
2022/05/10 09:07:52;;;;;;;0.40;0.30;;;;;;;28.76;29.97;95601.66;5095499;28;20518;-54
2022/05/10 09:10:25;;;;;;;0.33;0.30;;;;;;;28.86;26.97;95554.56;5095039;28;20428;-54
2022/05/10 09:12:58;;;;;;;0.70;0.70;;;;;;;28.58;26.23;95538.75;5095130;28;20428;-54
2022/05/10 09:15:33;;;;;;;0.60;0.50;;;;;;;29.85;25.40;95575.00;5094759;28;20450;-54
2022/05/10 09:18:09;;;;;;;0.40;0.33;;;;;;;30.36;25.45;95579.41;5094889;28;20434;-54
2022/05/10 09:20:46;;;;;;;0.50;0.37;;;;;;;29.43;24.72;95583.78;5094775;28;20820;-54
2022/05/10 09:23:27;;;;;;;0.77;0.50;;;;;;;30.19;23.98;95572.72;5094929;28;20428;-54
2022/05/10 09:25:57;;;;;;;0.40;0.40;;;;;;;29.99;23.18;95575.03;5094648;28;20950;-54
2022/05/10 09:28:31;;;;;;;0.40;0.30;;;;;;;29.86;22.46;95573.81;5094725;28;20513;-54
2022/05/10 09:34:49;;;;;;;0.30;0.20;;;;;;;30.11;21.90;95555.50;5094754;28;20446;-54
2022/05/10 09:37:40;;;;;;;0.40;0.30;;;;;;;30.90;20.56;95532.50;5094594;28;20518;-54
2022/05/10 09:40:32;;;;;;;0.80;0.40;;;;;;;30.68;21.41;95506.31;5094693;28;20490;-54
2022/05/10 09:43:19;;;;;;;0.60;0.50;;;;;;;31.01;21.52;95549.69;5089040;28;20504;-54
2022/05/10 09:46:07;;;;;;;0.40;0.30;;;;;;;31.20;22.24;95541.03;5092577;28;20503;-54
2022/05/10 09:48:38;;;;;;;0.30;0.30;;;;;;;32.33;21.09;95526.00;5093599;28;20471;-54
2022/05/10 09:51:23;;;;;;;0.40;0.40;;;;;;;32.15;20.32;95457.56;5093405;28;20483;-54
2022/05/10 09:53:53;;;;;;;0.30;0.30;;;;;;;31.95;20.96;95536.78;5094297;28;20468;-54
2022/05/10 09:56:33;;;;;;;0.40;0.30;;;;;;;30.27;20.29;95533.25;5094262;28;20508;-54
2022/05/10 09:59:04;;;;;;;0.40;0.40;;;;;;;30.95;20.56;95532.09;5094376;28;20432;-54
2022/05/10 10:01:41;;;;;;;0.40;0.30;;;;;;;31.00;22.32;95525.44;5094213;28;20455;-56
2022/05/10 10:04:23;;;;;;;0.40;0.30;;;;;;;30.87;20.04;95532.47;5093422;28;20439;-56
2022/05/10 10:07:10;;;;;;;0.40;0.30;;;;;;;31.54;20.41;95519.41;5094349;28;20785;-57
2022/05/10 10:09:41;;;;;;;0.40;0.30;;;;;;;32.08;20.78;95515.19;5093832;28;20463;-59
2022/05/10 10:12:16;;;;;;;0.30;0.30;;;;;;;32.23;19.53;95508.41;5093914;28;20420;-55
2022/05/10 10:14:47;;;;;;;0.40;0.20;;;;;;;31.91;20.49;95508.63;5094004;28;20496;-56
2022/05/10 10:17:23;;;;;;;0.30;0.30;;;;;;;30.75;20.95;95514.50;5093947;28;20455;-58
2022/05/10 10:20:00;;;;;;;0.50;0.50;;;;;;;30.57;20.66;95502.81;5093860;28;20484;-55
2022/05/10 10:22:37;;;;;;;0.50;0.30;;;;;;;31.09;20.11;95496.47;5093485;28;20868;-55
2022/05/10 10:25:12;;;;;;;0.40;0.30;;;;;;;31.91;19.38;95444.78;5093332;28;20479;-55
2022/05/10 10:27:46;;;;;;;0.60;0.60;;;;;;;32.99;19.15;95453.22;5092850;28;20920;-55
2022/05/10 10:30:22;;;;;;;3.33;0.40;;;;;;;33.38;19.66;95491.25;5092998;28;20993;-55
2022/05/10 10:32:56;;;;;;;0.40;0.30;;;;;;;32.61;19.87;95468.16;5093281;28;20459;-55
2022/05/10 10:35:34;;;;;;;0.70;0.40;;;;;;;32.94;19.01;95447.41;5093295;28;20501;-55
2022/05/10 10:38:13;;;;;;;0.40;0.30;;;;;;;33.53;19.06;95478.88;5093195;28;20525;-55
2022/05/10 10:40:45;;;;;;;0.30;0.30;;;;;;;32.48;18.58;95473.34;5093275;28;20419;-55
2022/05/10 10:43:20;;;;;;;0.50;0.30;;;;;;;31.96;18.79;95469.81;5093323;28;20432;-56
2022/05/10 10:45:52;;;;;;;0.40;0.30;;;;;;;32.52;19.16;95471.38;5092999;28;21054;-55
2022/05/10 10:48:28;;;;;;;0.50;0.30;;;;;;;33.94;18.30;95425.69;5092937;28;20435;-56
2022/05/10 10:50:59;;;;;;;0.40;0.30;;;;;;;32.74;17.56;95462.94;5092689;28;20499;-56
2022/05/10 10:53:34;;;;;;;0.30;0.30;;;;;;;33.25;18.07;95460.00;5093172;28;20517;-56
2022/05/10 10:56:37;;;;;;;0.40;0.30;;;;;;;33.13;17.10;95466.03;5092780;28;20526;-55
2022/05/10 10:59:21;;;;;;;1.50;0.30;;;;;;;34.22;18.16;95461.03;5091596;28;20973;-56
2022/05/10 11:02:09;;;;;;;0.40;0.30;;;;;;;33.17;17.84;95456.56;5092924;28;20860;-56
2022/05/10 11:04:55;;;;;;;0.50;0.30;;;;;;;32.61;18.56;95452.44;5092827;28;20966;-56
2022/05/10 11:07:43;;;;;;;0.30;0.20;;;;;;;32.16;19.15;95452.84;5093051;28;20509;-55
2022/05/10 11:10:23;;;;;;;4.93;0.60;;;;;;;30.22;19.80;95457.09;5092616;28;20534;-55
2022/05/10 11:13:00;;;;;;;0.63;0.43;;;;;;;29.42;20.51;95466.72;5092740;28;20439;-59
2022/05/10 11:15:41;;;;;;;0.30;0.30;;;;;;;30.12;21.52;95455.13;5092451;28;20512;-59
2022/05/10 11:18:37;;;;;;;3.03;0.30;;;;;;;28.94;21.69;95425.19;5092883;28;20851;-60
2022/05/10 11:21:19;;;;;;;0.47;0.37;;;;;;;28.58;22.08;95475.25;5071365;28;20497;-60
2022/05/10 11:23:58;;;;;;;5.20;0.93;;;;;;;28.28;23.19;95470.75;5092342;28;20467;-60
2022/05/10 11:26:40;;;;;;;0.40;0.30;;;;;;;26.83;24.13;95468.44;5092716;28;20485;-61
2022/05/10 11:29:28;;;;;;;0.47;0.30;;;;;;;26.54;23.72;95471.88;5092534;28;20780;-60
2022/05/10 11:32:10;;;;;;;0.37;0.30;;;;;;;26.03;24.31;95414.44;5092400;28;20938;-60
2022/05/10 11:35:06;;;;;;;0.30;0.20;;;;;;;27.02;23.11;95459.31;5092122;28;20882;-60
2022/05/10 11:37:41;;;;;;;0.40;0.30;;;;;;;26.71;23.62;95462.41;5092182;28;20428;-60
2022/05/10 11:40:45;;;;;;;0.37;0.30;;;;;;;27.44;23.43;95454.41;5091914;28;20421;-60
2022/05/10 11:43:47;;;;;;;0.40;0.30;;;;;;;28.68;21.17;95442.59;5092212;28;20432;-60
2022/05/10 11:46:50;;;;;;;0.60;0.30;;;;;;;28.01;21.97;95379.44;5075029;28;20490;-60
2022/05/10 11:49:35;;;;;;;0.40;0.30;;;;;;;28.20;21.53;95400.22;5091803;28;20805;-61
2022/05/10 11:52:28;;;;;;;3.80;0.30;;;;;;;28.79;22.80;95437.97;5092086;28;20449;-60
2022/05/10 11:55:06;;;;;;;0.50;0.40;;;;;;;28.65;22.00;95412.56;5092811;28;20444;-60
2022/05/10 11:57:37;;;;;;;0.40;0.37;;;;;;;27.57;21.83;95436.66;5092197;28;20933;-60
2022/05/10 12:00:54;;;;;;;0.40;0.30;;;;;;;28.06;23.39;95438.25;5092589;28;20525;-58
2022/05/10 12:03:54;;;;;;;0.40;0.40;;;;;;;28.17;23.97;95439.91;4990455;28;20602;-57
2022/05/10 12:06:42;;;;;;;0.30;0.30;;;;;;;29.18;23.23;95435.41;5091208;28;20516;-58
2022/05/10 12:13:03;;;;;;;0.40;0.40;;;;;;;28.03;24.13;95430.84;5092166;28;20489;-58
2022/05/10 12:21:54;;;;;;;0.87;0.40;;;;;;;26.47;24.48;95385.59;5092340;28;20486;-67
2022/05/10 12:24:45;;;;;;;0.37;0.30;;;;;;;26.79;24.60;95417.88;5091888;28;20462;-66